Washington Township, Ohio
Current Conditions -  °F | °C
As of 6:53 AM on Monday 24 Nov 2014 (Local Time) from KMGY Reporting Station
Scattered Clouds Scattered Clouds  
Wind Chill: 60°   Ceiling: Unl
Heat Index: 60°   Visibility: 10mi
Dew Point: 54°   Wind: 20mph
Humidity: 80%   Direction: 190°S
Pressure: 29.28"   Gusts: 39mph
Location:  39.6729°N, 84.0975°W
Report Text: KMGY 241153Z AUTO 19017G34KT 10SM SCT023 16/12 A2928 RMK AO2 PK WND 18034/1148 SLP912 60001 70074 T01560122 10156 20144 58011
Loading
Personal Weather Stations






























Interactive Weather Map New forecast layout! Learn more

10-Day Weather Forecast

Advertisements
Track Severe Weather on mobile